sensor_id;sensor_type;location;lat;lon;timestamp;temperature;humidity
610;DHT22;292;48.800;9.216;2023-04-25T00:02:24;11.80;62.70
610;DHT22;292;48.800;9.216;2023-04-25T00:04:51;11.80;62.70
610;DHT22;292;48.800;9.216;2023-04-25T00:07:18;11.80;62.70
610;DHT22;292;48.800;9.216;2023-04-25T00:09:46;11.80;62.80
610;DHT22;292;48.800;9.216;2023-04-25T00:12:13;11.80;63.00
610;DHT22;292;48.800;9.216;2023-04-25T00:14:42;11.80;63.00
610;DHT22;292;48.800;9.216;2023-04-25T00:17:11;11.80;63.00
610;DHT22;292;48.800;9.216;2023-04-25T00:19:37;11.90;62.80
610;DHT22;292;48.800;9.216;2023-04-25T00:22:05;11.90;62.80
610;DHT22;292;48.800;9.216;2023-04-25T00:24:32;12.00;62.40
610;DHT22;292;48.800;9.216;2023-04-25T00:26:59;12.00;62.40
610;DHT22;292;48.800;9.216;2023-04-25T00:29:26;12.00;62.40
610;DHT22;292;48.800;9.216;2023-04-25T00:31:54;12.00;62.30
610;DHT22;292;48.800;9.216;2023-04-25T00:34:21;12.00;62.40
610;DHT22;292;48.800;9.216;2023-04-25T00:36:49;12.00;62.30
610;DHT22;292;48.800;9.216;2023-04-25T00:39:16;12.00;62.40
610;DHT22;292;48.800;9.216;2023-04-25T00:41:43;12.00;62.50
610;DHT22;292;48.800;9.216;2023-04-25T00:44:11;12.00;62.40
610;DHT22;292;48.800;9.216;2023-04-25T00:46:39;12.00;62.40
610;DHT22;292;48.800;9.216;2023-04-25T00:49:07;12.00;62.40
610;DHT22;292;48.800;9.216;2023-04-25T00:51:39;12.00;62.40
610;DHT22;292;48.800;9.216;2023-04-25T00:54:06;12.00;62.40
610;DHT22;292;48.800;9.216;2023-04-25T00:56:33;12.10;62.40
610;DHT22;292;48.800;9.216;2023-04-25T00:59:00;12.00;62.40
610;DHT22;292;48.800;9.216;2023-04-25T01:01:27;12.00;62.40
610;DHT22;292;48.800;9.216;2023-04-25T01:03:56;12.00;62.50
610;DHT22;292;48.800;9.216;2023-04-25T01:06:25;12.00;62.70
610;DHT22;292;48.800;9.216;2023-04-25T01:08:53;12.00;62.70
610;DHT22;292;48.800;9.216;2023-04-25T01:11:20;11.90;62.70
610;DHT22;292;48.800;9.216;2023-04-25T01:13:47;11.90;62.70
610;DHT22;292;48.800;9.216;2023-04-25T01:16:15;11.90;62.70
610;DHT22;292;48.800;9.216;2023-04-25T01:18:42;11.90;62.80
610;DHT22;292;48.800;9.216;2023-04-25T01:21:12;11.90;62.80
610;DHT22;292;48.800;9.216;2023-04-25T01:23:41;11.90;62.80
610;DHT22;292;48.800;9.216;2023-04-25T01:26:10;11.80;62.80
610;DHT22;292;48.800;9.216;2023-04-25T01:28:37;11.80;63.00
610;DHT22;292;48.800;9.216;2023-04-25T01:31:06;11.80;63.00
610;DHT22;292;48.800;9.216;2023-04-25T01:33:33;11.80;63.10
610;DHT22;292;48.800;9.216;2023-04-25T01:36:00;11.80;63.10
610;DHT22;292;48.800;9.216;2023-04-25T01:38:29;11.90;63.30
610;DHT22;292;48.800;9.216;2023-04-25T01:40:56;11.90;63.30
610;DHT22;292;48.800;9.216;2023-04-25T01:43:23;11.80;63.30
610;DHT22;292;48.800;9.216;2023-04-25T01:45:52;11.90;63.30
610;DHT22;292;48.800;9.216;2023-04-25T01:48:19;11.80;63.10
610;DHT22;292;48.800;9.216;2023-04-25T01:50:46;11.80;63.40
610;DHT22;292;48.800;9.216;2023-04-25T01:53:15;11.80;63.60
610;DHT22;292;48.800;9.216;2023-04-25T01:55:43;11.80;63.60
610;DHT22;292;48.800;9.216;2023-04-25T01:58:10;11.80;63.70
610;DHT22;292;48.800;9.216;2023-04-25T02:00:38;11.80;63.70
610;DHT22;292;48.800;9.216;2023-04-25T02:03:07;11.70;63.80
610;DHT22;292;48.800;9.216;2023-04-25T02:05:35;11.70;64.00
610;DHT22;292;48.800;9.216;2023-04-25T02:08:03;11.70;64.10
610;DHT22;292;48.800;9.216;2023-04-25T02:10:30;11.80;64.30
610;DHT22;292;48.800;9.216;2023-04-25T02:12:59;11.80;64.40
610;DHT22;292;48.800;9.216;2023-04-25T02:15:26;11.80;64.40
610;DHT22;292;48.800;9.216;2023-04-25T02:17:53;11.80;64.40
610;DHT22;292;48.800;9.216;2023-04-25T02:20:21;11.80;64.40
610;DHT22;292;48.800;9.216;2023-04-25T02:22:48;11.80;64.40
610;DHT22;292;48.800;9.216;2023-04-25T02:25:16;11.80;64.40
610;DHT22;292;48.800;9.216;2023-04-25T02:27:43;11.80;64.40
610;DHT22;292;48.800;9.216;2023-04-25T02:30:13;11.80;64.30
610;DHT22;292;48.800;9.216;2023-04-25T02:32:41;11.80;64.30
610;DHT22;292;48.800;9.216;2023-04-25T02:35:08;11.80;64.30
610;DHT22;292;48.800;9.216;2023-04-25T02:37:37;11.70;64.40
610;DHT22;292;48.800;9.216;2023-04-25T02:40:06;11.70;64.60
610;DHT22;292;48.800;9.216;2023-04-25T02:42:33;11.80;64.70
610;DHT22;292;48.800;9.216;2023-04-25T02:45:00;11.80;64.60
610;DHT22;292;48.800;9.216;2023-04-25T02:47:29;11.80;64.70
610;DHT22;292;48.800;9.216;2023-04-25T02:49:56;11.80;64.70
610;DHT22;292;48.800;9.216;2023-04-25T02:52:23;11.80;64.70
610;DHT22;292;48.800;9.216;2023-04-25T02:54:50;11.80;64.90
610;DHT22;292;48.800;9.216;2023-04-25T02:57:18;11.80;64.90
610;DHT22;292;48.800;9.216;2023-04-25T02:59:45;11.80;65.00
610;DHT22;292;48.800;9.216;2023-04-25T03:02:12;11.80;65.00
610;DHT22;292;48.800;9.216;2023-04-25T03:04:40;11.80;64.90
610;DHT22;292;48.800;9.216;2023-04-25T03:07:07;11.80;64.70
610;DHT22;292;48.800;9.216;2023-04-25T03:09:34;11.80;64.60
610;DHT22;292;48.800;9.216;2023-04-25T03:12:01;11.80;64.40
610;DHT22;292;48.800;9.216;2023-04-25T03:14:29;11.80;64.30
610;DHT22;292;48.800;9.216;2023-04-25T03:16:56;11.70;64.40
610;DHT22;292;48.800;9.216;2023-04-25T03:19:23;11.70;64.40
610;DHT22;292;48.800;9.216;2023-04-25T03:21:52;11.70;64.40
610;DHT22;292;48.800;9.216;2023-04-25T03:24:19;11.60;64.70
610;DHT22;292;48.800;9.216;2023-04-25T03:26:46;11.60;64.40
610;DHT22;292;48.800;9.216;2023-04-25T03:29:13;11.60;64.40
610;DHT22;292;48.800;9.216;2023-04-25T03:31:40;11.60;64.70
610;DHT22;292;48.800;9.216;2023-04-25T03:34:07;11.60;64.70
610;DHT22;292;48.800;9.216;2023-04-25T03:36:34;11.60;64.70
610;DHT22;292;48.800;9.216;2023-04-25T03:39:03;11.60;64.70
610;DHT22;292;48.800;9.216;2023-04-25T03:41:32;11.60;64.70
610;DHT22;292;48.800;9.216;2023-04-25T03:43:58;11.60;64.70
610;DHT22;292;48.800;9.216;2023-04-25T03:46:26;11.60;64.40
610;DHT22;292;48.800;9.216;2023-04-25T03:48:53;11.60;64.40
610;DHT22;292;48.800;9.216;2023-04-25T03:51:20;11.60;64.40
610;DHT22;292;48.800;9.216;2023-04-25T03:53:47;11.60;64.40
610;DHT22;292;48.800;9.216;2023-04-25T03:56:16;11.50;64.70
610;DHT22;292;48.800;9.216;2023-04-25T03:58:43;11.60;64.70
610;DHT22;292;48.800;9.216;2023-04-25T04:01:10;11.60;64.40
610;DHT22;292;48.800;9.216;2023-04-25T04:03:37;11.60;64.40
610;DHT22;292;48.800;9.216;2023-04-25T04:06:05;11.60;64.30
610;DHT22;292;48.800;9.216;2023-04-25T04:08:34;11.50;64.30
610;DHT22;292;48.800;9.216;2023-04-25T04:11:01;11.50;64.10
610;DHT22;292;48.800;9.216;2023-04-25T04:13:29;11.50;64.10
610;DHT22;292;48.800;9.216;2023-04-25T04:15:56;11.50;64.30
610;DHT22;292;48.800;9.216;2023-04-25T04:18:24;11.50;64.40
610;DHT22;292;48.800;9.216;2023-04-25T04:20:51;11.50;64.40
610;DHT22;292;48.800;9.216;2023-04-25T04:23:18;11.40;64.40
610;DHT22;292;48.800;9.216;2023-04-25T04:25:46;11.40;64.60
610;DHT22;292;48.800;9.216;2023-04-25T04:28:13;11.40;64.70
610;DHT22;292;48.800;9.216;2023-04-25T04:30:43;11.40;64.70
610;DHT22;292;48.800;9.216;2023-04-25T04:33:12;11.40;64.90
610;DHT22;292;48.800;9.216;2023-04-25T04:35:41;11.40;65.00
610;DHT22;292;48.800;9.216;2023-04-25T04:38:08;11.40;65.00
610;DHT22;292;48.800;9.216;2023-04-25T04:40:36;11.40;65.00
610;DHT22;292;48.800;9.216;2023-04-25T04:43:03;11.50;65.00
610;DHT22;292;48.800;9.216;2023-04-25T04:45:30;11.50;65.00
610;DHT22;292;48.800;9.216;2023-04-25T04:47:59;11.50;65.00
610;DHT22;292;48.800;9.216;2023-04-25T04:50:26;11.50;65.10
610;DHT22;292;48.800;9.216;2023-04-25T04:52:53;11.50;65.10
610;DHT22;292;48.800;9.216;2023-04-25T04:55:20;11.50;65.10
610;DHT22;292;48.800;9.216;2023-04-25T04:57:48;11.40;65.10
610;DHT22;292;48.800;9.216;2023-04-25T05:00:16;11.40;65.10
610;DHT22;292;48.800;9.216;2023-04-25T05:02:43;11.40;65.30
610;DHT22;292;48.800;9.216;2023-04-25T05:05:12;11.40;65.40
610;DHT22;292;48.800;9.216;2023-04-25T05:07:39;11.30;65.70
610;DHT22;292;48.800;9.216;2023-04-25T05:10:07;11.40;65.90
610;DHT22;292;48.800;9.216;2023-04-25T05:12:34;11.40;66.00
610;DHT22;292;48.800;9.216;2023-04-25T05:15:01;11.40;65.90
610;DHT22;292;48.800;9.216;2023-04-25T05:17:28;11.40;65.90
610;DHT22;292;48.800;9.216;2023-04-25T05:19:55;11.40;66.20
610;DHT22;292;48.800;9.216;2023-04-25T05:22:24;11.40;66.00
610;DHT22;292;48.800;9.216;2023-04-25T05:24:53;11.40;66.00
610;DHT22;292;48.800;9.216;2023-04-25T05:27:20;11.40;66.20
610;DHT22;292;48.800;9.216;2023-04-25T05:29:47;11.40;66.30
610;DHT22;292;48.800;9.216;2023-04-25T05:32:14;11.40;66.30
610;DHT22;292;48.800;9.216;2023-04-25T05:34:41;11.50;66.20
610;DHT22;292;48.800;9.216;2023-04-25T05:37:09;11.50;66.20
610;DHT22;292;48.800;9.216;2023-04-25T05:39:37;11.50;66.30
610;DHT22;292;48.800;9.216;2023-04-25T05:42:04;11.50;66.20
610;DHT22;292;48.800;9.216;2023-04-25T05:44:32;11.40;65.60
610;DHT22;292;48.800;9.216;2023-04-25T05:46:59;11.40;65.60
610;DHT22;292;48.800;9.216;2023-04-25T05:49:26;11.40;66.00
610;DHT22;292;48.800;9.216;2023-04-25T05:51:53;11.30;66.30
610;DHT22;292;48.800;9.216;2023-04-25T05:54:20;11.30;66.30
610;DHT22;292;48.800;9.216;2023-04-25T05:56:48;11.20;66.70
610;DHT22;292;48.800;9.216;2023-04-25T05:59:15;11.20;67.30
610;DHT22;292;48.800;9.216;2023-04-25T06:01:42;11.10;67.30
610;DHT22;292;48.800;9.216;2023-04-25T06:04:10;11.10;67.50
610;DHT22;292;48.800;9.216;2023-04-25T06:06:37;11.10;67.60
610;DHT22;292;48.800;9.216;2023-04-25T06:09:04;11.10;67.70
610;DHT22;292;48.800;9.216;2023-04-25T06:11:31;11.10;67.90
610;DHT22;292;48.800;9.216;2023-04-25T06:14:00;11.10;67.90
610;DHT22;292;48.800;9.216;2023-04-25T06:16:27;11.10;67.70
610;DHT22;292;48.800;9.216;2023-04-25T06:18:54;11.00;67.30
610;DHT22;292;48.800;9.216;2023-04-25T06:21:21;11.00;66.90
610;DHT22;292;48.800;9.216;2023-04-25T06:23:49;11.00;66.90
610;DHT22;292;48.800;9.216;2023-04-25T06:26:15;11.00;66.60
610;DHT22;292;48.800;9.216;2023-04-25T06:28:42;11.00;66.60
610;DHT22;292;48.800;9.216;2023-04-25T06:31:11;11.00;66.40
610;DHT22;292;48.800;9.216;2023-04-25T06:33:38;11.00;66.40
610;DHT22;292;48.800;9.216;2023-04-25T06:36:05;11.00;66.40
610;DHT22;292;48.800;9.216;2023-04-25T06:38:33;11.10;66.70
610;DHT22;292;48.800;9.216;2023-04-25T06:41:00;11.10;66.60
610;DHT22;292;48.800;9.216;2023-04-25T06:43:28;11.10;66.60
610;DHT22;292;48.800;9.216;2023-04-25T06:45:58;11.20;66.60
610;DHT22;292;48.800;9.216;2023-04-25T06:48:27;11.20;66.40
610;DHT22;292;48.800;9.216;2023-04-25T06:50:54;11.30;66.30
610;DHT22;292;48.800;9.216;2023-04-25T06:53:22;11.30;66.00
610;DHT22;292;48.800;9.216;2023-04-25T06:55:49;11.30;66.00
610;DHT22;292;48.800;9.216;2023-04-25T06:58:16;11.30;65.70
610;DHT22;292;48.800;9.216;2023-04-25T07:00:43;11.30;65.60
610;DHT22;292;48.800;9.216;2023-04-25T07:03:10;11.30;65.70
610;DHT22;292;48.800;9.216;2023-04-25T07:05:38;11.30;66.00
610;DHT22;292;48.800;9.216;2023-04-25T07:08:05;11.40;66.00
610;DHT22;292;48.800;9.216;2023-04-25T07:10:32;11.40;65.90
610;DHT22;292;48.800;9.216;2023-04-25T07:12:59;11.40;66.00
610;DHT22;292;48.800;9.216;2023-04-25T07:15:26;11.40;66.20
610;DHT22;292;48.800;9.216;2023-04-25T07:17:53;11.40;66.30
610;DHT22;292;48.800;9.216;2023-04-25T07:20:20;11.40;66.30
610;DHT22;292;48.800;9.216;2023-04-25T07:22:49;11.40;66.20
610;DHT22;292;48.800;9.216;2023-04-25T07:25:16;11.40;66.20
610;DHT22;292;48.800;9.216;2023-04-25T07:27:43;11.40;66.20
610;DHT22;292;48.800;9.216;2023-04-25T07:30:11;11.40;66.30
610;DHT22;292;48.800;9.216;2023-04-25T07:32:38;11.40;66.40
610;DHT22;292;48.800;9.216;2023-04-25T07:35:06;11.40;66.70
610;DHT22;292;48.800;9.216;2023-04-25T07:37:33;11.30;67.00
610;DHT22;292;48.800;9.216;2023-04-25T07:40:02;11.30;67.20
610;DHT22;292;48.800;9.216;2023-04-25T07:42:30;11.30;67.30
610;DHT22;292;48.800;9.216;2023-04-25T07:44:57;11.30;67.30
610;DHT22;292;48.800;9.216;2023-04-25T07:47:25;11.30;67.30
610;DHT22;292;48.800;9.216;2023-04-25T07:49:52;11.30;67.50
610;DHT22;292;48.800;9.216;2023-04-25T07:52:19;11.30;67.30
610;DHT22;292;48.800;9.216;2023-04-25T07:54:46;11.30;67.50
610;DHT22;292;48.800;9.216;2023-04-25T07:57:15;11.30;67.60
610;DHT22;292;48.800;9.216;2023-04-25T07:59:42;11.20;67.70
610;DHT22;292;48.800;9.216;2023-04-25T08:02:09;11.20;68.00
610;DHT22;292;48.800;9.216;2023-04-25T08:04:36;11.20;68.30
610;DHT22;292;48.800;9.216;2023-04-25T08:07:03;11.20;68.90
610;DHT22;292;48.800;9.216;2023-04-25T08:09:31;11.20;69.30
610;DHT22;292;48.800;9.216;2023-04-25T08:12:00;11.20;69.50
610;DHT22;292;48.800;9.216;2023-04-25T08:14:29;11.20;69.80
610;DHT22;292;48.800;9.216;2023-04-25T08:17:01;11.20;70.00
610;DHT22;292;48.800;9.216;2023-04-25T08:19:29;11.10;70.30
610;DHT22;292;48.800;9.216;2023-04-25T08:21:57;11.10;70.80
610;DHT22;292;48.800;9.216;2023-04-25T08:24:24;11.10;71.10
610;DHT22;292;48.800;9.216;2023-04-25T08:26:57;11.20;71.30
610;DHT22;292;48.800;9.216;2023-04-25T08:29:25;11.10;71.50
610;DHT22;292;48.800;9.216;2023-04-25T08:31:55;11.10;71.80
610;DHT22;292;48.800;9.216;2023-04-25T08:34:22;11.10;71.80
610;DHT22;292;48.800;9.216;2023-04-25T08:36:51;11.10;71.90
610;DHT22;292;48.800;9.216;2023-04-25T08:39:18;11.10;72.10
610;DHT22;292;48.800;9.216;2023-04-25T08:41:46;11.00;72.40
610;DHT22;292;48.800;9.216;2023-04-25T08:44:13;11.00;72.50
610;DHT22;292;48.800;9.216;2023-04-25T08:46:41;11.00;72.80
610;DHT22;292;48.800;9.216;2023-04-25T08:49:10;11.00;73.10
610;DHT22;292;48.800;9.216;2023-04-25T08:51:46;11.00;73.40
610;DHT22;292;48.800;9.216;2023-04-25T08:54:14;11.00;73.70
610;DHT22;292;48.800;9.216;2023-04-25T08:56:45;11.10;73.80
610;DHT22;292;48.800;9.216;2023-04-25T08:59:14;11.10;74.10
610;DHT22;292;48.800;9.216;2023-04-25T09:01:43;11.10;74.40
610;DHT22;292;48.800;9.216;2023-04-25T09:04:14;11.10;74.50
610;DHT22;292;48.800;9.216;2023-04-25T09:06:41;11.20;74.50
610;DHT22;292;48.800;9.216;2023-04-25T09:09:09;11.20;74.70
610;DHT22;292;48.800;9.216;2023-04-25T09:11:37;11.20;74.80
610;DHT22;292;48.800;9.216;2023-04-25T09:14:13;11.10;75.00
610;DHT22;292;48.800;9.216;2023-04-25T09:16:58;11.10;75.10
610;DHT22;292;48.800;9.216;2023-04-25T09:19:28;11.10;75.20
610;DHT22;292;48.800;9.216;2023-04-25T09:21:57;11.10;75.40
610;DHT22;292;48.800;9.216;2023-04-25T09:24:33;11.10;75.40
610;DHT22;292;48.800;9.216;2023-04-25T09:27:04;11.10;75.20
610;DHT22;292;48.800;9.216;2023-04-25T09:29:33;11.10;75.20
610;DHT22;292;48.800;9.216;2023-04-25T09:32:17;11.10;75.40
610;DHT22;292;48.800;9.216;2023-04-25T09:34:48;11.10;75.40
610;DHT22;292;48.800;9.216;2023-04-25T09:37:19;11.10;75.50
610;DHT22;292;48.800;9.216;2023-04-25T09:39:48;11.10;75.50
610;DHT22;292;48.800;9.216;2023-04-25T09:42:16;11.10;75.40
610;DHT22;292;48.800;9.216;2023-04-25T09:44:44;11.10;75.40
610;DHT22;292;48.800;9.216;2023-04-25T09:47:13;11.00;75.50
610;DHT22;292;48.800;9.216;2023-04-25T09:49:43;11.00;75.80
610;DHT22;292;48.800;9.216;2023-04-25T09:52:16;10.90;75.80
610;DHT22;292;48.800;9.216;2023-04-25T09:54:45;10.90;76.00
610;DHT22;292;48.800;9.216;2023-04-25T09:57:18;10.90;76.00
610;DHT22;292;48.800;9.216;2023-04-25T09:59:47;10.90;76.10
610;DHT22;292;48.800;9.216;2023-04-25T10:02:17;10.80;75.80
610;DHT22;292;48.800;9.216;2023-04-25T10:04:48;10.80;75.40
610;DHT22;292;48.800;9.216;2023-04-25T10:07:20;10.70;75.00
610;DHT22;292;48.800;9.216;2023-04-25T10:09:49;10.70;75.00
610;DHT22;292;48.800;9.216;2023-04-25T10:12:18;10.70;75.20
610;DHT22;292;48.800;9.216;2023-04-25T10:14:47;10.70;75.20
610;DHT22;292;48.800;9.216;2023-04-25T10:17:16;10.60;75.20
610;DHT22;292;48.800;9.216;2023-04-25T10:19:44;10.70;75.10
610;DHT22;292;48.800;9.216;2023-04-25T10:22:23;10.60;75.00
610;DHT22;292;48.800;9.216;2023-04-25T10:24:56;10.60;75.20
610;DHT22;292;48.800;9.216;2023-04-25T10:27:24;10.50;75.40
610;DHT22;292;48.800;9.216;2023-04-25T10:30:01;10.50;75.50
610;DHT22;292;48.800;9.216;2023-04-25T10:32:30;10.40;76.00
610;DHT22;292;48.800;9.216;2023-04-25T10:34:58;10.40;76.00
610;DHT22;292;48.800;9.216;2023-04-25T10:37:37;10.30;76.00
610;DHT22;292;48.800;9.216;2023-04-25T10:40:09;10.20;76.00
610;DHT22;292;48.800;9.216;2023-04-25T10:42:36;10.20;76.10
610;DHT22;292;48.800;9.216;2023-04-25T10:45:05;10.10;76.40
610;DHT22;292;48.800;9.216;2023-04-25T10:47:36;10.00;76.70
610;DHT22;292;48.800;9.216;2023-04-25T10:50:08;9.90;77.10
610;DHT22;292;48.800;9.216;2023-04-25T10:52:40;9.90;77.50
610;DHT22;292;48.800;9.216;2023-04-25T10:55:08;9.80;78.00
610;DHT22;292;48.800;9.216;2023-04-25T10:57:40;9.80;78.30
610;DHT22;292;48.800;9.216;2023-04-25T11:00:13;9.80;78.60
610;DHT22;292;48.800;9.216;2023-04-25T11:02:43;9.70;78.80
610;DHT22;292;48.800;9.216;2023-04-25T11:05:20;9.70;79.30
610;DHT22;292;48.800;9.216;2023-04-25T11:07:52;9.70;79.70
610;DHT22;292;48.800;9.216;2023-04-25T11:10:20;9.70;79.40
610;DHT22;292;48.800;9.216;2023-04-25T11:12:51;9.60;79.40
610;DHT22;292;48.800;9.216;2023-04-25T11:15:19;9.60;79.30
610;DHT22;292;48.800;9.216;2023-04-25T11:17:51;9.60;79.10
610;DHT22;292;48.800;9.216;2023-04-25T11:20:18;9.50;78.70
610;DHT22;292;48.800;9.216;2023-04-25T11:22:46;9.50;78.30
610;DHT22;292;48.800;9.216;2023-04-25T11:25:16;9.50;78.00
610;DHT22;292;48.800;9.216;2023-04-25T11:27:52;9.50;77.80
610;DHT22;292;48.800;9.216;2023-04-25T11:30:21;9.50;78.00
610;DHT22;292;48.800;9.216;2023-04-25T11:32:48;9.50;78.10
610;DHT22;292;48.800;9.216;2023-04-25T11:35:17;9.60;78.40
610;DHT22;292;48.800;9.216;2023-04-25T11:37:45;9.70;78.30
610;DHT22;292;48.800;9.216;2023-04-25T11:40:14;9.80;78.30
610;DHT22;292;48.800;9.216;2023-04-25T11:42:44;9.80;78.30
610;DHT22;292;48.800;9.216;2023-04-25T11:45:13;9.90;78.40
610;DHT22;292;48.800;9.216;2023-04-25T11:47:40;9.90;78.40
610;DHT22;292;48.800;9.216;2023-04-25T11:50:08;10.00;78.40
610;DHT22;292;48.800;9.216;2023-04-25T11:52:41;10.00;78.40
610;DHT22;292;48.800;9.216;2023-04-25T11:55:12;10.10;77.70
610;DHT22;292;48.800;9.216;2023-04-25T11:57:43;10.10;77.50
610;DHT22;292;48.800;9.216;2023-04-25T12:00:14;10.10;76.80
610;DHT22;292;48.800;9.216;2023-04-25T12:02:42;10.10;76.50
610;DHT22;292;48.800;9.216;2023-04-25T12:05:11;10.10;76.50
610;DHT22;292;48.800;9.216;2023-04-25T12:07:40;10.10;76.40
610;DHT22;292;48.800;9.216;2023-04-25T12:10:09;10.10;76.70
610;DHT22;292;48.800;9.216;2023-04-25T12:12:38;10.20;76.50
610;DHT22;292;48.800;9.216;2023-04-25T12:15:14;10.20;76.20
610;DHT22;292;48.800;9.216;2023-04-25T12:17:45;10.30;76.00
610;DHT22;292;48.800;9.216;2023-04-25T12:20:14;10.30;76.10
610;DHT22;292;48.800;9.216;2023-04-25T12:22:42;10.30;76.40
610;DHT22;292;48.800;9.216;2023-04-25T12:25:11;10.40;76.10
610;DHT22;292;48.800;9.216;2023-04-25T12:27:39;10.40;75.80
610;DHT22;292;48.800;9.216;2023-04-25T12:30:09;10.40;75.80
610;DHT22;292;48.800;9.216;2023-04-25T12:32:39;10.50;76.00
610;DHT22;292;48.800;9.216;2023-04-25T12:35:07;10.50;75.50
610;DHT22;292;48.800;9.216;2023-04-25T12:37:35;10.50;75.20
610;DHT22;292;48.800;9.216;2023-04-25T12:40:06;10.50;75.20
610;DHT22;292;48.800;9.216;2023-04-25T12:42:34;10.50;75.20
610;DHT22;292;48.800;9.216;2023-04-25T12:45:01;10.60;75.20
610;DHT22;292;48.800;9.216;2023-04-25T12:47:29;10.60;75.50
610;DHT22;292;48.800;9.216;2023-04-25T12:49:59;10.60;75.50
610;DHT22;292;48.800;9.216;2023-04-25T12:52:26;10.70;75.80
610;DHT22;292;48.800;9.216;2023-04-25T12:54:55;10.70;75.80
610;DHT22;292;48.800;9.216;2023-04-25T12:57:22;10.80;76.10
610;DHT22;292;48.800;9.216;2023-04-25T12:59:51;10.90;76.10
610;DHT22;292;48.800;9.216;2023-04-25T13:02:18;11.00;76.20
610;DHT22;292;48.800;9.216;2023-04-25T13:04:46;11.10;75.50
610;DHT22;292;48.800;9.216;2023-04-25T13:07:16;11.10;75.40
610;DHT22;292;48.800;9.216;2023-04-25T13:09:44;11.20;75.00
610;DHT22;292;48.800;9.216;2023-04-25T13:12:11;11.30;75.00
610;DHT22;292;48.800;9.216;2023-04-25T13:14:38;11.40;74.70
610;DHT22;292;48.800;9.216;2023-04-25T13:17:07;11.50;74.70
610;DHT22;292;48.800;9.216;2023-04-25T13:19:35;11.60;74.20
610;DHT22;292;48.800;9.216;2023-04-25T13:22:04;11.60;73.90
610;DHT22;292;48.800;9.216;2023-04-25T13:24:33;11.70;73.40
610;DHT22;292;48.800;9.216;2023-04-25T13:27:00;11.80;73.10
610;DHT22;292;48.800;9.216;2023-04-25T13:29:27;11.80;73.10
610;DHT22;292;48.800;9.216;2023-04-25T13:31:54;11.90;72.90
610;DHT22;292;48.800;9.216;2023-04-25T13:34:21;12.00;73.10
610;DHT22;292;48.800;9.216;2023-04-25T13:36:48;12.10;73.10
610;DHT22;292;48.800;9.216;2023-04-25T13:39:15;12.20;72.60
610;DHT22;292;48.800;9.216;2023-04-25T13:41:43;12.20;72.20
610;DHT22;292;48.800;9.216;2023-04-25T13:44:10;12.30;71.60
610;DHT22;292;48.800;9.216;2023-04-25T13:46:38;12.40;71.60
610;DHT22;292;48.800;9.216;2023-04-25T13:49:05;12.50;71.10
610;DHT22;292;48.800;9.216;2023-04-25T13:51:32;12.50;70.90
610;DHT22;292;48.800;9.216;2023-04-25T13:53:59;12.50;70.50
610;DHT22;292;48.800;9.216;2023-04-25T13:56:26;12.50;70.00
610;DHT22;292;48.800;9.216;2023-04-25T13:58:55;12.50;69.60
610;DHT22;292;48.800;9.216;2023-04-25T14:01:22;12.50;69.60
610;DHT22;292;48.800;9.216;2023-04-25T14:03:50;12.50;69.30
610;DHT22;292;48.800;9.216;2023-04-25T14:06:19;12.50;69.30
610;DHT22;292;48.800;9.216;2023-04-25T14:08:48;12.60;69.30
610;DHT22;292;48.800;9.216;2023-04-25T14:11:16;12.80;68.70
610;DHT22;292;48.800;9.216;2023-04-25T14:13:44;12.80;68.20
610;DHT22;292;48.800;9.216;2023-04-25T14:16:13;12.90;67.70
610;DHT22;292;48.800;9.216;2023-04-25T14:18:42;12.90;67.50
610;DHT22;292;48.800;9.216;2023-04-25T14:21:10;12.90;67.60
610;DHT22;292;48.800;9.216;2023-04-25T14:23:38;13.00;67.00
610;DHT22;292;48.800;9.216;2023-04-25T14:26:05;13.10;66.20
610;DHT22;292;48.800;9.216;2023-04-25T14:28:32;13.20;65.60
610;DHT22;292;48.800;9.216;2023-04-25T14:31:02;13.30;65.60
610;DHT22;292;48.800;9.216;2023-04-25T14:33:31;13.50;65.60
610;DHT22;292;48.800;9.216;2023-04-25T14:35:58;13.70;65.00
610;DHT22;292;48.800;9.216;2023-04-25T14:38:28;13.80;64.10
610;DHT22;292;48.800;9.216;2023-04-25T14:41:00;13.90;63.60
610;DHT22;292;48.800;9.216;2023-04-25T14:43:28;13.90;63.30
610;DHT22;292;48.800;9.216;2023-04-25T14:45:54;14.00;62.50
610;DHT22;292;48.800;9.216;2023-04-25T14:48:22;14.00;62.40
610;DHT22;292;48.800;9.216;2023-04-25T14:50:50;14.10;62.10
610;DHT22;292;48.800;9.216;2023-04-25T14:53:19;14.20;61.70
610;DHT22;292;48.800;9.216;2023-04-25T14:55:48;14.30;60.80
610;DHT22;292;48.800;9.216;2023-04-25T14:58:15;14.40;60.40
610;DHT22;292;48.800;9.216;2023-04-25T15:00:42;14.40;60.20
610;DHT22;292;48.800;9.216;2023-04-25T15:03:10;14.40;60.00
610;DHT22;292;48.800;9.216;2023-04-25T15:05:38;14.30;60.00
610;DHT22;292;48.800;9.216;2023-04-25T15:08:07;14.30;60.00
610;DHT22;292;48.800;9.216;2023-04-25T15:10:34;14.20;59.20
610;DHT22;292;48.800;9.216;2023-04-25T15:13:02;14.10;59.20
610;DHT22;292;48.800;9.216;2023-04-25T15:15:29;14.00;59.40
610;DHT22;292;48.800;9.216;2023-04-25T15:17:57;14.00;59.70
610;DHT22;292;48.800;9.216;2023-04-25T15:20:24;14.00;59.60
610;DHT22;292;48.800;9.216;2023-04-25T15:22:54;13.90;59.60
610;DHT22;292;48.800;9.216;2023-04-25T15:25:24;13.90;59.40
610;DHT22;292;48.800;9.216;2023-04-25T15:27:54;13.90;59.30
610;DHT22;292;48.800;9.216;2023-04-25T15:30:21;13.90;59.00
610;DHT22;292;48.800;9.216;2023-04-25T15:32:48;13.90;59.30
610;DHT22;292;48.800;9.216;2023-04-25T15:35:16;13.90;59.40
610;DHT22;292;48.800;9.216;2023-04-25T15:37:44;14.00;59.60
610;DHT22;292;48.800;9.216;2023-04-25T15:40:13;14.00;59.30
610;DHT22;292;48.800;9.216;2023-04-25T15:42:45;13.90;59.00
610;DHT22;292;48.800;9.216;2023-04-25T15:45:17;13.90;59.30
610;DHT22;292;48.800;9.216;2023-04-25T15:47:44;13.90;59.60
610;DHT22;292;48.800;9.216;2023-04-25T15:50:12;13.90;59.70
610;DHT22;292;48.800;9.216;2023-04-25T15:52:40;13.80;60.00
610;DHT22;292;48.800;9.216;2023-04-25T15:55:10;13.80;59.70
610;DHT22;292;48.800;9.216;2023-04-25T15:57:38;13.80;59.60
610;DHT22;292;48.800;9.216;2023-04-25T16:00:11;13.70;59.70
610;DHT22;292;48.800;9.216;2023-04-25T16:02:39;13.70;58.90
610;DHT22;292;48.800;9.216;2023-04-25T16:05:07;13.60;58.80
610;DHT22;292;48.800;9.216;2023-04-25T16:07:35;13.60;59.00
610;DHT22;292;48.800;9.216;2023-04-25T16:10:03;13.60;59.30
610;DHT22;292;48.800;9.216;2023-04-25T16:12:31;13.60;59.30
610;DHT22;292;48.800;9.216;2023-04-25T16:14:58;13.60;59.30
610;DHT22;292;48.800;9.216;2023-04-25T16:17:27;13.60;59.30
610;DHT22;292;48.800;9.216;2023-04-25T16:19:58;13.60;58.90
610;DHT22;292;48.800;9.216;2023-04-25T16:22:26;13.50;59.20
610;DHT22;292;48.800;9.216;2023-04-25T16:24:53;13.40;58.90
610;DHT22;292;48.800;9.216;2023-04-25T16:27:20;13.30;59.20
610;DHT22;292;48.800;9.216;2023-04-25T16:29:47;13.30;59.60
610;DHT22;292;48.800;9.216;2023-04-25T16:32:16;13.20;59.80
610;DHT22;292;48.800;9.216;2023-04-25T16:34:44;13.20;59.30
610;DHT22;292;48.800;9.216;2023-04-25T16:37:11;13.20;59.40
610;DHT22;292;48.800;9.216;2023-04-25T16:39:43;13.10;59.70
610;DHT22;292;48.800;9.216;2023-04-25T16:42:12;13.10;59.80
610;DHT22;292;48.800;9.216;2023-04-25T16:44:39;13.10;59.80